Aérodrome :
LOGIN :

S'inscrire | Disclaimer

   EN    FR    IT 

 










Légende :    VFR   VFR Marginal   IFR   IFR Intensif   IFR Très Intensif
Visi : 
Plafond : 
>= 8 km
>= 3000ft
5 à 8 km
1000 à 3000 ft
1500m à 5 km
500 à 1000 ft
800 à 1500m
200 à 500 ft
< 800m
< 200 ft
Symboles :   Orages  Brouillard  Fortes neiges  Fortes précipitations  Vent > 20 kt
SIGMETs :   Divers  Orages  Givrage  Turbulence  Onde Orograph.  Cendres Volcan.







- Altitude de l'aérodrome : 187 ft


LPMR - Monte Real Air Base

DERNIER METAR :
  • 230900Z VRB02KT 8000 BKN004 18/18 Q1018

METARs EXPIRÉS :
  • 230800Z VRB02KT 0700 FG VV002 18/18 Q1017
  • 230700Z VRB01KT 0400 FG VV002 17/17 Q1017

TAF AMD TAF LPMR
Valide du 23 à 06h jusqu'au 24 à 06h UTC


230611Z 2306/2406 VRB02KT 2000 BR SCT002
PROB40 2306/2310 0200 FG BKN002
BECMG 2308/2311 33010KT CAVOK
BECMG 2322/2324 36005KT SCT006
PROB40 2400/2406 4000 BR BKN004
Pas de NOTAMs connus pour ce terrain.



MET'MAP, la Météo Aéronautique d'un coup d'oeil ! - Copyright ORBIFLY Décembre 2007 - Disclaimer

ORBIFLY MET'MAP TEAM :

Programmation & Développement : Alexandra Zaïnal
Conception & Développement : Baudouin d'Aumeries
Co-Programmation & Développement : Marc-Olivier Méhu
Soutien technique & logistique : Manuel Goepfert

Contact : metmap@orbifly.com




SOURCES & CREDITS :

   NOAA